Wapiti, WY (82450)

4:18 PM MDT on March 22, 2017 (GMT -0600)
MNFSW4 | | Change Station
Active Advisory: Special Statement

Elev 6051 ft 44.47 °N, 109.43 °W | Updated 13 minutes ago

Scattered Clouds
Scattered Clouds
60.0 °F
Feels Like 60.0 °F
N
-
Wind Variable Wind from North

Today
High -- | Low -- °F
--% Chance of Precip.
Yesterday
High -- | Low -- °F
Precip. -- in
Pressure 29.75 in
Visibility 10.0 miles
Clouds Scattered Clouds 10000 ft
Dew Point Not available.
Humidity Not available.
Rainfall in
Snow Depth Not available.
7:16 AM 7:33 PM
Waning Crescent, 29% visible
METAR KCOD 222156Z AUTO 14011KT 10SM SCT100 16/02 A2977 RMK AO2 SLP074 T01610022
Pressure 29.75 in
Visibility 10.0 miles
Clouds Scattered Clouds 10000 ft
Dew Point Not available.
Humidity Not available.
Rainfall in
Snow Depth Not available.
7:16 AM 7:33 PM
Waning Crescent, 29% visible
METAR KCOD 222156Z AUTO 14011KT 10SM SCT100 16/02 A2977 RMK AO2 SLP074 T01610022

Get Your Daily Forecast Email!

Thanks for signing up!

Be on the lookout for a verification email in your inbox.

You'll start receiving severe weather alerts in your inbox..

×

10-Day Weather Forecast

Almanac

Astronomy

Mar. 22, 2017 Rise Set
Actual Time
Civil Twilight
Nautical Twilight
Astronomical Twilight
Moon
Length of Visible Light
Length of Day
Tomorrow will be .
, % of the Moon is Illuminated

Today's Extremes

State Highs State Lows

Community

WunderPhotos

Upload Photos

1,962,540 photos uploaded!

WunderBlog® & News

Nearby

Air Quality

  Air Quality AQ Index Pollutant
Not available.

Snow Depth

Station Depth Elevation

Earthquake Activity

City Distance Mag. Time & Date
Minimum magnitude displayed is 2.5.

Earthquake Activity

City Distance Mag. Time & Date
Minimum magnitude displayed is 2.5.

Coastal Water Temperatures

Place Temperature

Stations

Nearby Weather Stations

Station Location Temp. Windchill Dew Point Humidity Wind Precip. Elev Updated Type
                   

Watches & Warnings

Special Statement
Issued: 4:08 PM MDT Mar. 22, 2017 – National Weather Service

An approaching storm system will bring widespread showers to the
area tonight with mountain snow and the possibility of rain
changing to snow across the lower elevations, especially above
5000 feet. The highest probability for the snow besides the
mountainous locations will be the area from south of Cody to
Grass Creek Divide. The southern part of the absarokas may see 3
to 7 inches with local amounts to 8 inches. The Cody foothills
could see 1 to 4 inches on Thursday into Thursday evening.